»·PEaware :: UAL1513 KELP-KAMA

UAL1513 :: KELP-KAMA

FLIGHT INFORMATION

Flight Status: Arrived
Operator:
United Airlines
More flights by this operator :: More flights under this callsign
Pilot: Alex K. (14822)
Aircraft: Unknown
(B727)
More flights by this aircraft type
Origin: KELP El Paso Intl
United States
Destination: KAMA Amarillo Intl
United States
More flights between these airports :: More routes between these airports
Route: ELP J26 PNH
File this flight plan on PilotEdge
Remarks: PBN / A1B2 NAV / RNVD1E2A1 DAT / V DOF / 171006 REG / N299SB RMK / NRP SIMBRIEF
Altitude:
(Current/Filed)
33,000ft
Speed:
(Current/Filed)
491kts
Departed: 06-Oct-17 12:57 PM
Arrived: 06-Oct-17 01:55 PM
Distance/Time
Traveled:
311nm/0:57
Distance/Time
To Go:
Arrived

Flight Plot

Page will automatically refresh every two minutes.

Flight plan parsing failed; only flown route is shown


Map Options




Map Legend


Flown Route
Filed Route
Departure Airport
Arrival Airport
Navaid (VOR, NDB)
Fix

Horizontal Profiles

Position Reports

Time Latitude Longitude Heading Altitude Ground
Speed
06-Oct-17 12:42 31.800045 -106.392530 346 3929ft 0kts
06-Oct-17 12:43 31.800045 -106.392530 346 3929ft 0kts
06-Oct-17 12:44 31.800045 -106.392530 346 3929ft 0kts
06-Oct-17 12:45 31.800045 -106.392530 346 3929ft 0kts
06-Oct-17 12:46 31.800045 -106.392530 346 3929ft 0kts
06-Oct-17 12:47 31.800045 -106.392530 346 3929ft 0kts
06-Oct-17 12:48 31.800045 -106.392530 346 3929ft 0kts
06-Oct-17 12:49 31.800045 -106.392530 346 3929ft 0kts
06-Oct-17 12:50 31.799796 -106.392460 346 3929ft 2kts
06-Oct-17 12:51 31.799439 -106.392522 65 3929ft 0kts
06-Oct-17 12:52 31.799415 -106.392602 68 3929ft 0kts
06-Oct-17 12:53 31.799415 -106.392602 68 3929ft 0kts
06-Oct-17 12:54 31.799415 -106.392602 68 3929ft 0kts
06-Oct-17 12:55 31.799415 -106.392602 68 3929ft 0kts
06-Oct-17 12:56 31.799870 -106.391144 77 3929ft 15kts
06-Oct-17 12:57 31.799893 -106.384002 89 3941ft 24kts
06-Oct-17 12:58 31.799720 -106.375071 94 3952ft 29kts
06-Oct-17 12:59 31.799189 -106.364673 93 3961ft 28kts
06-Oct-17 13:00 31.800636 -106.360425 276 3952ft 14kts
06-Oct-17 13:01 31.802344 -106.390595 272 4232ft 150kts
06-Oct-17 13:02 31.775250 -106.424692 209 5642ft 182kts
06-Oct-17 13:03 31.723113 -106.453736 207 7351ft 245kts
06-Oct-17 13:04 31.654319 -106.492508 207 9845ft 291kts
06-Oct-17 13:05 31.579553 -106.528257 183 13079ft 303kts
06-Oct-17 13:06 31.522570 -106.455665 94 15335ft 368kts
06-Oct-17 13:07 31.572807 -106.357525 16 17669ft 382kts
06-Oct-17 13:08 31.675796 -106.324752 10 19940ft 395kts
06-Oct-17 13:09 31.784598 -106.291178 10 22017ft 414kts
06-Oct-17 13:10 31.878239 -106.207458 56 23979ft 445kts
06-Oct-17 13:11 31.897009 -106.063677 89 25793ft 457kts
06-Oct-17 13:12 31.927872 -105.916851 70 27491ft 472kts
06-Oct-17 13:13 31.971856 -105.769922 69 29120ft 484kts
06-Oct-17 13:14 32.017495 -105.618931 69 30658ft 496kts
06-Oct-17 13:15 32.112237 -105.516563 4 31996ft 471kts
06-Oct-17 13:16 32.241520 -105.502717 358 33001ft 483kts
06-Oct-17 13:17 32.369422 -105.436964 28 33002ft 530kts
06-Oct-17 13:18 32.492440 -105.335586 32 32913ft 549kts
06-Oct-17 13:19 32.615353 -105.231334 30 32894ft 548kts
06-Oct-17 13:20 32.737836 -105.128668 30 32895ft 549kts
06-Oct-17 13:21 32.859952 -105.025976 30 32898ft 551kts
06-Oct-17 13:22 32.983350 -104.921843 30 32901ft 552kts
06-Oct-17 13:23 33.103875 -104.819789 30 32902ft 553kts
06-Oct-17 13:24 33.221768 -104.720802 30 32898ft 554kts
06-Oct-17 13:25 33.346202 -104.614710 30 32901ft 555kts
06-Oct-17 13:26 33.470752 -104.508205 30 32903ft 556kts
06-Oct-17 13:27 33.595346 -104.401173 30 32906ft 558kts
06-Oct-17 13:28 33.719429 -104.292626 32 32895ft 559kts
06-Oct-17 13:29 33.845115 -104.183472 31 32899ft 558kts
06-Oct-17 13:30 33.967567 -104.071231 46 32853ft 567kts
06-Oct-17 13:31 34.017782 -103.894913 81 32928ft 566kts
06-Oct-17 13:32 34.042362 -103.709561 83 32933ft 568kts
06-Oct-17 13:33 34.068193 -103.521351 69 32891ft 571kts
06-Oct-17 13:34 34.157571 -103.366482 49 32934ft 567kts
06-Oct-17 13:35 34.252848 -103.216683 50 32291ft 559kts
06-Oct-17 13:36 34.346856 -103.069207 49 30322ft 550kts
06-Oct-17 13:37 34.438233 -102.925586 49 28451ft 535kts
06-Oct-17 13:38 34.527153 -102.785082 49 26644ft 520kts
06-Oct-17 13:39 34.616211 -102.652525 32 24782ft 499kts
06-Oct-17 13:40 34.717287 -102.544510 48 23025ft 490kts
06-Oct-17 13:41 34.798102 -102.415651 50 21075ft 466kts
06-Oct-17 13:42 34.873410 -102.292378 51 18515ft 446kts
06-Oct-17 13:43 34.944918 -102.175435 51 16122ft 426kts
06-Oct-17 13:44 35.013982 -102.062581 51 13926ft 412kts
06-Oct-17 13:45 35.083789 -101.955767 34 12523ft 394kts
06-Oct-17 13:46 35.167682 -101.874132 35 11047ft 386kts
06-Oct-17 13:47 35.251795 -101.797650 35 10256ft 360kts
06-Oct-17 13:48 35.328076 -101.731259 35 9878ft 312kts
06-Oct-17 13:49 35.397245 -101.671110 35 8879ft 282kts
06-Oct-17 13:50 35.457600 -101.618641 35 8120ft 237kts
06-Oct-17 13:51 35.458835 -101.550919 125 5857ft 226kts
06-Oct-17 13:52 35.417665 -101.504997 185 4987ft 189kts
06-Oct-17 13:53 35.373587 -101.544991 219 5017ft 212kts
06-Oct-17 13:54 35.330708 -101.591363 220 4996ft 199kts
06-Oct-17 13:55 35.290469 -101.634953 220 5049ft 179kts
06-Oct-17 13:56 35.259978 -101.667916 219 4369ft 126kts
06-Oct-17 13:57 35.235281 -101.694963 222 3803ft 119kts
06-Oct-17 13:58 35.217501 -101.717095 225 3618ft 46kts
06-Oct-17 13:59 35.211737 -101.719912 123 3618ft 18kts
06-Oct-17 14:00 35.214808 -101.715229 45 3618ft 20kts
06-Oct-17 14:01 35.219175 -101.709746 45 3618ft 24kts
06-Oct-17 14:02 35.219332 -101.706334 162 3618ft 0kts

Navigation Log

Ident Type
Flight plan parsing failed, navigation log unavailable